sensor_id;sensor_type;location;lat;lon;timestamp;P1;durP1;ratioP1;P2;durP2;ratioP2
36839;SDS011;24406;51.640;9.566;2023-04-20T00:03:22;9.18;;;6.00;;
36839;SDS011;24406;51.640;9.566;2023-04-20T00:08:25;10.25;;;6.18;;
36839;SDS011;24406;51.640;9.566;2023-04-20T00:13:26;12.05;;;7.60;;
36839;SDS011;24406;51.640;9.566;2023-04-20T00:18:28;11.85;;;7.55;;
36839;SDS011;24406;51.640;9.566;2023-04-20T00:23:31;12.95;;;8.10;;
36839;SDS011;24406;51.640;9.566;2023-04-20T00:28:32;12.48;;;8.57;;
36839;SDS011;24406;51.640;9.566;2023-04-20T00:33:34;9.57;;;7.80;;
36839;SDS011;24406;51.640;9.566;2023-04-20T00:38:37;10.52;;;8.13;;
36839;SDS011;24406;51.640;9.566;2023-04-20T00:43:47;14.40;;;8.50;;
36839;SDS011;24406;51.640;9.566;2023-04-20T00:48:50;11.23;;;8.50;;
36839;SDS011;24406;51.640;9.566;2023-04-20T00:53:53;12.77;;;9.25;;
36839;SDS011;24406;51.640;9.566;2023-04-20T00:58:54;17.58;;;9.82;;
36839;SDS011;24406;51.640;9.566;2023-04-20T01:03:56;11.68;;;9.25;;
36839;SDS011;24406;51.640;9.566;2023-04-20T01:08:59;11.82;;;9.75;;
36839;SDS011;24406;51.640;9.566;2023-04-20T01:14:01;11.52;;;10.32;;
36839;SDS011;24406;51.640;9.566;2023-04-20T01:19:04;11.88;;;10.63;;
36839;SDS011;24406;51.640;9.566;2023-04-20T01:24:08;10.68;;;9.55;;
36839;SDS011;24406;51.640;9.566;2023-04-20T01:29:09;12.65;;;8.70;;
36839;SDS011;24406;51.640;9.566;2023-04-20T01:34:11;8.45;;;7.47;;
36839;SDS011;24406;51.640;9.566;2023-04-20T01:39:14;7.53;;;6.72;;
36839;SDS011;24406;51.640;9.566;2023-04-20T01:44:17;6.15;;;5.55;;
36839;SDS011;24406;51.640;9.566;2023-04-20T01:49:18;5.72;;;5.13;;
36839;SDS011;24406;51.640;9.566;2023-04-20T01:54:21;6.50;;;6.00;;
36839;SDS011;24406;51.640;9.566;2023-04-20T01:59:23;6.43;;;5.82;;
36839;SDS011;24406;51.640;9.566;2023-04-20T02:04:24;7.00;;;6.40;;
36839;SDS011;24406;51.640;9.566;2023-04-20T02:09:27;6.93;;;6.32;;
36839;SDS011;24406;51.640;9.566;2023-04-20T02:14:29;7.00;;;6.40;;
36839;SDS011;24406;51.640;9.566;2023-04-20T02:19:31;8.48;;;7.88;;
36839;SDS011;24406;51.640;9.566;2023-04-20T02:24:34;9.23;;;8.52;;
36839;SDS011;24406;51.640;9.566;2023-04-20T02:29:36;9.30;;;8.50;;
36839;SDS011;24406;51.640;9.566;2023-04-20T02:34:38;9.48;;;8.68;;
36839;SDS011;24406;51.640;9.566;2023-04-20T02:39:41;11.02;;;8.80;;
36839;SDS011;24406;51.640;9.566;2023-04-20T02:44:42;9.88;;;9.07;;
36839;SDS011;24406;51.640;9.566;2023-04-20T02:49:44;9.70;;;8.90;;
36839;SDS011;24406;51.640;9.566;2023-04-20T02:54:48;9.82;;;8.93;;
36839;SDS011;24406;51.640;9.566;2023-04-20T02:59:51;9.40;;;8.63;;
36839;SDS011;24406;51.640;9.566;2023-04-20T03:04:58;10.43;;;9.43;;
36839;SDS011;24406;51.640;9.566;2023-04-20T03:10:04;8.50;;;7.80;;
36839;SDS011;24406;51.640;9.566;2023-04-20T03:15:20;9.20;;;8.40;;
36839;SDS011;24406;51.640;9.566;2023-04-20T03:20:36;8.60;;;7.80;;
36839;SDS011;24406;51.640;9.566;2023-04-20T03:25:39;8.32;;;7.63;;
36839;SDS011;24406;51.640;9.566;2023-04-20T03:30:51;8.85;;;8.05;;
36839;SDS011;24406;51.640;9.566;2023-04-20T03:35:53;6.90;;;6.30;;
36839;SDS011;24406;51.640;9.566;2023-04-20T03:40:56;8.63;;;6.68;;
36839;SDS011;24406;51.640;9.566;2023-04-20T03:45:58;6.85;;;6.25;;
36839;SDS011;24406;51.640;9.566;2023-04-20T03:50:59;6.95;;;6.30;;
36839;SDS011;24406;51.640;9.566;2023-04-20T03:56:02;8.82;;;6.47;;
36839;SDS011;24406;51.640;9.566;2023-04-20T04:01:07;7.03;;;6.40;;
36839;SDS011;24406;51.640;9.566;2023-04-20T04:06:16;6.65;;;5.95;;
36839;SDS011;24406;51.640;9.566;2023-04-20T04:11:19;6.05;;;5.45;;
36839;SDS011;24406;51.640;9.566;2023-04-20T04:16:20;5.65;;;5.15;;
36839;SDS011;24406;51.640;9.566;2023-04-20T04:21:23;5.55;;;4.90;;
36839;SDS011;24406;51.640;9.566;2023-04-20T04:26:32;6.23;;;4.63;;
36839;SDS011;24406;51.640;9.566;2023-04-20T04:31:33;5.90;;;5.30;;
36839;SDS011;24406;51.640;9.566;2023-04-20T04:36:41;6.10;;;5.50;;
36839;SDS011;24406;51.640;9.566;2023-04-20T04:41:48;8.38;;;5.57;;
36839;SDS011;24406;51.640;9.566;2023-04-20T04:47:00;10.77;;;6.05;;
36839;SDS011;24406;51.640;9.566;2023-04-20T04:52:03;6.85;;;6.20;;
36839;SDS011;24406;51.640;9.566;2023-04-20T04:57:06;6.93;;;6.22;;
36839;SDS011;24406;51.640;9.566;2023-04-20T05:02:08;8.18;;;6.93;;
36839;SDS011;24406;51.640;9.566;2023-04-20T05:07:09;7.10;;;6.40;;
36839;SDS011;24406;51.640;9.566;2023-04-20T05:12:12;6.85;;;6.25;;
36839;SDS011;24406;51.640;9.566;2023-04-20T05:17:14;8.23;;;6.72;;
36839;SDS011;24406;51.640;9.566;2023-04-20T05:22:15;7.00;;;6.30;;
36839;SDS011;24406;51.640;9.566;2023-04-20T05:27:18;6.20;;;5.60;;
36839;SDS011;24406;51.640;9.566;2023-04-20T05:32:20;6.80;;;6.20;;
36839;SDS011;24406;51.640;9.566;2023-04-20T05:37:21;6.68;;;6.05;;
36839;SDS011;24406;51.640;9.566;2023-04-20T05:42:24;6.55;;;5.85;;
36839;SDS011;24406;51.640;9.566;2023-04-20T05:47:25;6.38;;;5.78;;
36839;SDS011;24406;51.640;9.566;2023-04-20T05:52:27;6.30;;;5.70;;
36839;SDS011;24406;51.640;9.566;2023-04-20T05:57:30;7.22;;;5.97;;
36839;SDS011;24406;51.640;9.566;2023-04-20T06:02:31;6.75;;;6.10;;
36839;SDS011;24406;51.640;9.566;2023-04-20T06:07:34;7.00;;;6.20;;
36839;SDS011;24406;51.640;9.566;2023-04-20T06:12:37;7.43;;;6.03;;
36839;SDS011;24406;51.640;9.566;2023-04-20T06:17:39;7.13;;;6.53;;
36839;SDS011;24406;51.640;9.566;2023-04-20T06:22:40;7.72;;;6.93;;
36839;SDS011;24406;51.640;9.566;2023-04-20T06:27:44;6.97;;;6.35;;
36839;SDS011;24406;51.640;9.566;2023-04-20T06:32:46;6.07;;;5.57;;
36839;SDS011;24406;51.640;9.566;2023-04-20T06:37:48;6.38;;;4.45;;
36839;SDS011;24406;51.640;9.566;2023-04-20T06:42:51;4.55;;;3.80;;
36839;SDS011;24406;51.640;9.566;2023-04-20T06:47:52;3.60;;;3.30;;
36839;SDS011;24406;51.640;9.566;2023-04-20T06:52:54;4.10;;;3.80;;
36839;SDS011;24406;51.640;9.566;2023-04-20T06:57:57;3.50;;;3.20;;
36839;SDS011;24406;51.640;9.566;2023-04-20T07:02:58;3.83;;;3.42;;
36839;SDS011;24406;51.640;9.566;2023-04-20T07:08:00;3.15;;;2.95;;
36839;SDS011;24406;51.640;9.566;2023-04-20T07:13:03;4.10;;;3.63;;
36839;SDS011;24406;51.640;9.566;2023-04-20T07:18:04;4.03;;;3.50;;
36839;SDS011;24406;51.640;9.566;2023-04-20T07:23:06;4.63;;;3.67;;
36839;SDS011;24406;51.640;9.566;2023-04-20T07:28:08;4.43;;;4.03;;
36839;SDS011;24406;51.640;9.566;2023-04-20T07:33:10;6.63;;;4.18;;
36839;SDS011;24406;51.640;9.566;2023-04-20T07:38:11;5.25;;;4.85;;
36839;SDS011;24406;51.640;9.566;2023-04-20T07:43:14;5.38;;;4.88;;
36839;SDS011;24406;51.640;9.566;2023-04-20T07:48:16;6.75;;;6.10;;
36839;SDS011;24406;51.640;9.566;2023-04-20T07:53:18;7.15;;;6.35;;
36839;SDS011;24406;51.640;9.566;2023-04-20T07:58:21;6.75;;;6.15;;
36839;SDS011;24406;51.640;9.566;2023-04-20T08:03:22;6.78;;;5.95;;
36839;SDS011;24406;51.640;9.566;2023-04-20T08:08:26;6.68;;;6.07;;
36839;SDS011;24406;51.640;9.566;2023-04-20T08:13:29;7.20;;;6.50;;
36839;SDS011;24406;51.640;9.566;2023-04-20T08:18:31;9.70;;;6.88;;
36839;SDS011;24406;51.640;9.566;2023-04-20T08:23:32;6.47;;;5.90;;
36839;SDS011;24406;51.640;9.566;2023-04-20T08:28:35;8.07;;;6.82;;
36839;SDS011;24406;51.640;9.566;2023-04-20T08:33:37;8.43;;;7.63;;
36839;SDS011;24406;51.640;9.566;2023-04-20T08:38:38;8.88;;;8.07;;
36839;SDS011;24406;51.640;9.566;2023-04-20T08:43:41;11.25;;;10.05;;
36839;SDS011;24406;51.640;9.566;2023-04-20T08:48:44;10.52;;;9.52;;
36839;SDS011;24406;51.640;9.566;2023-04-20T08:53:47;11.70;;;10.32;;
36839;SDS011;24406;51.640;9.566;2023-04-20T08:58:50;15.10;;;11.98;;
36839;SDS011;24406;51.640;9.566;2023-04-20T09:03:52;15.52;;;14.13;;
36839;SDS011;24406;51.640;9.566;2023-04-20T09:08:53;14.30;;;12.80;;
36839;SDS011;24406;51.640;9.566;2023-04-20T09:13:57;12.82;;;11.30;;
36839;SDS011;24406;51.640;9.566;2023-04-20T09:18:59;14.07;;;12.48;;
36839;SDS011;24406;51.640;9.566;2023-04-20T09:24:01;11.50;;;10.00;;
36839;SDS011;24406;51.640;9.566;2023-04-20T09:29:15;11.40;;;8.98;;
36839;SDS011;24406;51.640;9.566;2023-04-20T09:34:17;10.73;;;9.73;;
36839;SDS011;24406;51.640;9.566;2023-04-20T09:39:21;11.77;;;10.45;;
36839;SDS011;24406;51.640;9.566;2023-04-20T09:44:25;11.50;;;10.35;;
36839;SDS011;24406;51.640;9.566;2023-04-20T09:49:26;14.07;;;12.48;;
36839;SDS011;24406;51.640;9.566;2023-04-20T09:54:28;10.88;;;9.88;;
36839;SDS011;24406;51.640;9.566;2023-04-20T09:59:32;12.63;;;11.32;;
36839;SDS011;24406;51.640;9.566;2023-04-20T10:04:33;12.18;;;10.98;;
36839;SDS011;24406;51.640;9.566;2023-04-20T10:09:35;11.15;;;9.95;;
36839;SDS011;24406;51.640;9.566;2023-04-20T10:14:38;10.40;;;9.43;;
36839;SDS011;24406;51.640;9.566;2023-04-20T10:19:40;10.57;;;9.57;;
36839;SDS011;24406;51.640;9.566;2023-04-20T10:24:42;10.80;;;9.80;;
36839;SDS011;24406;51.640;9.566;2023-04-20T10:29:45;13.38;;;9.25;;
36839;SDS011;24406;51.640;9.566;2023-04-20T10:34:46;9.85;;;8.88;;
36839;SDS011;24406;51.640;9.566;2023-04-20T10:39:48;10.55;;;9.27;;
36839;SDS011;24406;51.640;9.566;2023-04-20T10:44:51;9.23;;;8.43;;
36839;SDS011;24406;51.640;9.566;2023-04-20T10:49:53;9.75;;;8.85;;
36839;SDS011;24406;51.640;9.566;2023-04-20T10:54:55;9.68;;;8.52;;
36839;SDS011;24406;51.640;9.566;2023-04-20T10:59:58;8.65;;;7.85;;
36839;SDS011;24406;51.640;9.566;2023-04-20T11:05:08;8.95;;;8.07;;
36839;SDS011;24406;51.640;9.566;2023-04-20T11:10:11;7.40;;;6.72;;
36839;SDS011;24406;51.640;9.566;2023-04-20T11:15:14;7.63;;;6.88;;
36839;SDS011;24406;51.640;9.566;2023-04-20T11:20:15;6.88;;;6.30;;
36839;SDS011;24406;51.640;9.566;2023-04-20T11:25:17;6.90;;;6.30;;
36839;SDS011;24406;51.640;9.566;2023-04-20T11:30:20;6.15;;;5.55;;
36839;SDS011;24406;51.640;9.566;2023-04-20T11:35:21;5.78;;;5.05;;
36839;SDS011;24406;51.640;9.566;2023-04-20T11:40:23;8.02;;;7.22;;
36839;SDS011;24406;51.640;9.566;2023-04-20T11:45:26;6.15;;;5.55;;
36839;SDS011;24406;51.640;9.566;2023-04-20T11:50:27;6.40;;;5.20;;
36839;SDS011;24406;51.640;9.566;2023-04-20T11:55:29;6.53;;;5.43;;
36839;SDS011;24406;51.640;9.566;2023-04-20T12:00:32;5.50;;;5.00;;
36839;SDS011;24406;51.640;9.566;2023-04-20T12:05:33;5.47;;;4.97;;
36839;SDS011;24406;51.640;9.566;2023-04-20T12:10:35;5.82;;;5.32;;
36839;SDS011;24406;51.640;9.566;2023-04-20T12:15:38;6.32;;;5.82;;
36839;SDS011;24406;51.640;9.566;2023-04-20T12:20:39;6.18;;;5.68;;
36839;SDS011;24406;51.640;9.566;2023-04-20T12:25:40;5.75;;;5.28;;
36839;SDS011;24406;51.640;9.566;2023-04-20T12:30:43;6.10;;;5.57;;
36839;SDS011;24406;51.640;9.566;2023-04-20T12:35:45;5.07;;;4.63;;
36839;SDS011;24406;51.640;9.566;2023-04-20T12:40:46;4.82;;;4.50;;
36839;SDS011;24406;51.640;9.566;2023-04-20T12:45:49;5.07;;;4.68;;
36839;SDS011;24406;51.640;9.566;2023-04-20T12:50:51;4.57;;;4.10;;
36839;SDS011;24406;51.640;9.566;2023-04-20T12:55:52;4.20;;;3.90;;
36839;SDS011;24406;51.640;9.566;2023-04-20T13:00:55;4.25;;;3.83;;
36839;SDS011;24406;51.640;9.566;2023-04-20T13:05:57;3.72;;;3.53;;
36839;SDS011;24406;51.640;9.566;2023-04-20T13:10:59;3.92;;;3.63;;
36839;SDS011;24406;51.640;9.566;2023-04-20T13:16:01;3.83;;;3.53;;
36839;SDS011;24406;51.640;9.566;2023-04-20T13:21:03;3.70;;;3.40;;
36839;SDS011;24406;51.640;9.566;2023-04-20T13:26:04;3.38;;;3.17;;
36839;SDS011;24406;51.640;9.566;2023-04-20T13:31:08;3.47;;;3.17;;
36839;SDS011;24406;51.640;9.566;2023-04-20T13:36:10;4.53;;;4.13;;
36839;SDS011;24406;51.640;9.566;2023-04-20T13:41:12;3.88;;;3.58;;
36839;SDS011;24406;51.640;9.566;2023-04-20T13:46:15;4.40;;;4.00;;
36839;SDS011;24406;51.640;9.566;2023-04-20T13:51:16;4.72;;;4.18;;
36839;SDS011;24406;51.640;9.566;2023-04-20T13:56:18;4.05;;;3.65;;
36839;SDS011;24406;51.640;9.566;2023-04-20T14:01:21;5.10;;;4.60;;
36839;SDS011;24406;51.640;9.566;2023-04-20T14:06:24;4.47;;;4.07;;
36839;SDS011;24406;51.640;9.566;2023-04-20T14:11:26;5.28;;;4.85;;
36839;SDS011;24406;51.640;9.566;2023-04-20T14:16:29;4.45;;;3.80;;
36839;SDS011;24406;51.640;9.566;2023-04-20T14:21:31;4.90;;;4.50;;
36839;SDS011;24406;51.640;9.566;2023-04-20T14:26:32;4.72;;;4.32;;
36839;SDS011;24406;51.640;9.566;2023-04-20T14:31:35;5.47;;;4.82;;
36839;SDS011;24406;51.640;9.566;2023-04-20T14:36:37;4.95;;;4.55;;
36839;SDS011;24406;51.640;9.566;2023-04-20T14:41:38;8.05;;;5.95;;
36839;SDS011;24406;51.640;9.566;2023-04-20T14:46:41;5.97;;;5.50;;
36839;SDS011;24406;51.640;9.566;2023-04-20T14:51:43;9.88;;;6.95;;
36839;SDS011;24406;51.640;9.566;2023-04-20T14:56:44;6.20;;;5.70;;
36839;SDS011;24406;51.640;9.566;2023-04-20T15:01:47;6.97;;;5.97;;
36839;SDS011;24406;51.640;9.566;2023-04-20T15:06:49;7.13;;;6.47;;
36839;SDS011;24406;51.640;9.566;2023-04-20T15:11:50;6.57;;;5.93;;
36839;SDS011;24406;51.640;9.566;2023-04-20T15:16:53;7.43;;;6.72;;
36839;SDS011;24406;51.640;9.566;2023-04-20T15:21:55;7.65;;;6.78;;
36839;SDS011;24406;51.640;9.566;2023-04-20T15:26:56;8.23;;;7.38;;
36839;SDS011;24406;51.640;9.566;2023-04-20T15:31:59;7.72;;;6.88;;
36839;SDS011;24406;51.640;9.566;2023-04-20T15:37:00;11.50;;;8.02;;
36839;SDS011;24406;51.640;9.566;2023-04-20T15:42:02;8.32;;;7.50;;
36839;SDS011;24406;51.640;9.566;2023-04-20T15:47:05;9.10;;;8.27;;
36839;SDS011;24406;51.640;9.566;2023-04-20T15:52:06;9.68;;;8.77;;
36839;SDS011;24406;51.640;9.566;2023-04-20T15:57:08;11.02;;;9.68;;
36839;SDS011;24406;51.640;9.566;2023-04-20T16:02:11;9.05;;;8.25;;
36839;SDS011;24406;51.640;9.566;2023-04-20T16:07:12;10.70;;;9.75;;
36839;SDS011;24406;51.640;9.566;2023-04-20T16:12:15;11.25;;;10.15;;
36839;SDS011;24406;51.640;9.566;2023-04-20T16:17:18;10.95;;;9.95;;
36839;SDS011;24406;51.640;9.566;2023-04-20T16:22:20;10.32;;;9.18;;
36839;SDS011;24406;51.640;9.566;2023-04-20T16:27:21;11.05;;;10.05;;
36839;SDS011;24406;51.640;9.566;2023-04-20T16:32:24;10.38;;;9.43;;
36839;SDS011;24406;51.640;9.566;2023-04-20T16:37:26;10.18;;;9.18;;
36839;SDS011;24406;51.640;9.566;2023-04-20T16:42:29;11.43;;;10.27;;
36839;SDS011;24406;51.640;9.566;2023-04-20T16:47:32;13.93;;;12.45;;
36839;SDS011;24406;51.640;9.566;2023-04-20T16:52:33;22.88;;;15.93;;
36839;SDS011;24406;51.640;9.566;2023-04-20T16:57:35;13.85;;;11.63;;
36839;SDS011;24406;51.640;9.566;2023-04-20T17:02:38;16.17;;;11.90;;
36839;SDS011;24406;51.640;9.566;2023-04-20T17:07:39;14.02;;;11.93;;
36839;SDS011;24406;51.640;9.566;2023-04-20T17:12:41;14.73;;;12.40;;
36839;SDS011;24406;51.640;9.566;2023-04-20T17:17:44;12.50;;;11.05;;
36839;SDS011;24406;51.640;9.566;2023-04-20T17:22:45;13.15;;;11.85;;
36839;SDS011;24406;51.640;9.566;2023-04-20T17:27:47;14.57;;;11.48;;
36839;SDS011;24406;51.640;9.566;2023-04-20T17:32:51;16.80;;;14.00;;
36839;SDS011;24406;51.640;9.566;2023-04-20T17:37:53;17.00;;;14.45;;
36839;SDS011;24406;51.640;9.566;2023-04-20T17:42:54;16.77;;;14.93;;
36839;SDS011;24406;51.640;9.566;2023-04-20T17:47:57;17.88;;;14.43;;
36839;SDS011;24406;51.640;9.566;2023-04-20T17:52:59;15.55;;;13.80;;
36839;SDS011;24406;51.640;9.566;2023-04-20T17:58:05;14.80;;;11.80;;
36839;SDS011;24406;51.640;9.566;2023-04-20T18:03:08;16.92;;;15.18;;
36839;SDS011;24406;51.640;9.566;2023-04-20T18:08:09;15.98;;;14.07;;
36839;SDS011;24406;51.640;9.566;2023-04-20T18:13:12;16.48;;;13.90;;
36839;SDS011;24406;51.640;9.566;2023-04-20T18:18:15;18.13;;;14.70;;
36839;SDS011;24406;51.640;9.566;2023-04-20T18:23:20;20.33;;;16.90;;
36839;SDS011;24406;51.640;9.566;2023-04-20T18:28:22;18.65;;;15.82;;
36839;SDS011;24406;51.640;9.566;2023-04-20T18:33:25;23.77;;;17.38;;
36839;SDS011;24406;51.640;9.566;2023-04-20T18:38:26;23.98;;;18.65;;
36839;SDS011;24406;51.640;9.566;2023-04-20T18:43:27;22.50;;;18.10;;
36839;SDS011;24406;51.640;9.566;2023-04-20T18:48:31;25.40;;;18.35;;
36839;SDS011;24406;51.640;9.566;2023-04-20T18:53:33;23.70;;;18.13;;
36839;SDS011;24406;51.640;9.566;2023-04-20T18:58:34;24.05;;;18.35;;
36839;SDS011;24406;51.640;9.566;2023-04-20T19:03:37;25.85;;;18.95;;
36839;SDS011;24406;51.640;9.566;2023-04-20T19:08:38;26.83;;;19.33;;
36839;SDS011;24406;51.640;9.566;2023-04-20T19:13:40;23.63;;;18.60;;
36839;SDS011;24406;51.640;9.566;2023-04-20T19:18:44;27.30;;;20.42;;
36839;SDS011;24406;51.640;9.566;2023-04-20T19:23:47;26.70;;;20.17;;
36839;SDS011;24406;51.640;9.566;2023-04-20T19:28:49;25.52;;;18.65;;
36839;SDS011;24406;51.640;9.566;2023-04-20T19:33:51;24.73;;;19.60;;
36839;SDS011;24406;51.640;9.566;2023-04-20T19:38:53;24.15;;;19.45;;
36839;SDS011;24406;51.640;9.566;2023-04-20T19:43:54;24.85;;;19.35;;
36839;SDS011;24406;51.640;9.566;2023-04-20T19:48:59;26.20;;;18.77;;
36839;SDS011;24406;51.640;9.566;2023-04-20T19:54:01;27.27;;;19.33;;
36839;SDS011;24406;51.640;9.566;2023-04-20T19:59:03;27.35;;;20.05;;
36839;SDS011;24406;51.640;9.566;2023-04-20T20:04:06;25.70;;;20.38;;
36839;SDS011;24406;51.640;9.566;2023-04-20T20:09:08;27.13;;;20.80;;
36839;SDS011;24406;51.640;9.566;2023-04-20T20:14:09;27.98;;;20.42;;
36839;SDS011;24406;51.640;9.566;2023-04-20T20:19:12;29.63;;;21.73;;
36839;SDS011;24406;51.640;9.566;2023-04-20T20:24:15;29.55;;;22.83;;
36839;SDS011;24406;51.640;9.566;2023-04-20T20:29:16;29.40;;;23.05;;
36839;SDS011;24406;51.640;9.566;2023-04-20T20:34:19;29.40;;;22.15;;
36839;SDS011;24406;51.640;9.566;2023-04-20T20:39:21;29.67;;;22.40;;
36839;SDS011;24406;51.640;9.566;2023-04-20T20:44:22;27.02;;;21.30;;
36839;SDS011;24406;51.640;9.566;2023-04-20T20:49:25;30.60;;;23.10;;
36839;SDS011;24406;51.640;9.566;2023-04-20T20:54:27;29.58;;;22.75;;
36839;SDS011;24406;51.640;9.566;2023-04-20T20:59:28;31.42;;;24.20;;
36839;SDS011;24406;51.640;9.566;2023-04-20T21:04:31;29.30;;;22.42;;
36839;SDS011;24406;51.640;9.566;2023-04-20T21:09:33;30.15;;;22.75;;
36839;SDS011;24406;51.640;9.566;2023-04-20T21:14:34;28.58;;;22.13;;
36839;SDS011;24406;51.640;9.566;2023-04-20T21:19:38;28.95;;;22.85;;
36839;SDS011;24406;51.640;9.566;2023-04-20T21:24:39;32.70;;;22.65;;
36839;SDS011;24406;51.640;9.566;2023-04-20T21:29:41;32.10;;;22.35;;
36839;SDS011;24406;51.640;9.566;2023-04-20T21:34:44;31.77;;;22.70;;
36839;SDS011;24406;51.640;9.566;2023-04-20T21:39:45;29.50;;;23.05;;
36839;SDS011;24406;51.640;9.566;2023-04-20T21:44:47;29.13;;;22.95;;
36839;SDS011;24406;51.640;9.566;2023-04-20T21:49:50;31.92;;;22.65;;
36839;SDS011;24406;51.640;9.566;2023-04-20T21:54:51;28.02;;;21.83;;
36839;SDS011;24406;51.640;9.566;2023-04-20T21:59:52;26.60;;;20.83;;
36839;SDS011;24406;51.640;9.566;2023-04-20T22:04:55;29.27;;;20.65;;
36839;SDS011;24406;51.640;9.566;2023-04-20T22:09:57;27.23;;;21.02;;
36839;SDS011;24406;51.640;9.566;2023-04-20T22:14:58;27.27;;;20.80;;
36839;SDS011;24406;51.640;9.566;2023-04-20T22:20:01;28.23;;;21.55;;
36839;SDS011;24406;51.640;9.566;2023-04-20T22:25:05;25.58;;;20.40;;
36839;SDS011;24406;51.640;9.566;2023-04-20T22:30:08;24.90;;;19.58;;
36839;SDS011;24406;51.640;9.566;2023-04-20T22:35:11;24.17;;;19.83;;
36839;SDS011;24406;51.640;9.566;2023-04-20T22:40:12;27.77;;;20.38;;
36839;SDS011;24406;51.640;9.566;2023-04-20T22:45:14;24.23;;;20.08;;
36839;SDS011;24406;51.640;9.566;2023-04-20T22:50:19;26.88;;;22.38;;
36839;SDS011;24406;51.640;9.566;2023-04-20T22:55:21;29.88;;;23.27;;
36839;SDS011;24406;51.640;9.566;2023-04-20T23:00:23;29.08;;;22.48;;
36839;SDS011;24406;51.640;9.566;2023-04-20T23:05:25;32.90;;;23.60;;
36839;SDS011;24406;51.640;9.566;2023-04-20T23:10:29;28.98;;;24.17;;
36839;SDS011;24406;51.640;9.566;2023-04-20T23:15:30;29.23;;;22.83;;
36839;SDS011;24406;51.640;9.566;2023-04-20T23:20:34;34.15;;;24.55;;
36839;SDS011;24406;51.640;9.566;2023-04-20T23:25:37;30.65;;;25.13;;
36839;SDS011;24406;51.640;9.566;2023-04-20T23:30:38;32.60;;;24.85;;
36839;SDS011;24406;51.640;9.566;2023-04-20T23:35:41;35.28;;;26.23;;
36839;SDS011;24406;51.640;9.566;2023-04-20T23:40:42;31.88;;;24.80;;
36839;SDS011;24406;51.640;9.566;2023-04-20T23:45:44;33.40;;;26.40;;
36839;SDS011;24406;51.640;9.566;2023-04-20T23:50:48;30.63;;;25.15;;
36839;SDS011;24406;51.640;9.566;2023-04-20T23:55:49;35.58;;;25.85;;
